Time;durP1;ratioP1;P1;durP2;ratioP2;P2;SDS_P1;SDS_P2;PMS_P1;PMS_P2;Temp;Humidity;BMP_temperature;BMP_pressure;BME280_temperature;BME280_humidity;BME280_pressure;Samples;Min_cycle;Max_cycle;Signal;HPM_P1;HPM_P2
2023/01/11 00:01:26;;;;;;;50.80;46.80;;;;;;;;;;9997597;29;20533;-70
2023/01/11 00:06:22;;;;;;;52.28;48.55;;;;;;;;;;9980427;29;20135;-68
2023/01/11 00:11:18;;;;;;;51.45;48.10;;;;;;;;;;9980987;29;20048;-68
2023/01/11 00:16:15;;;;;;;55.67;51.67;;;;;;;;;;9984287;29;20056;-68
2023/01/11 00:21:11;;;;;;;51.90;48.08;;;;;;;;;;9990458;29;20052;-70
2023/01/11 00:26:10;;;;;;;53.00;49.25;;;;;;;;;;9978872;29;20395;-69
2023/01/11 00:31:07;;;;;;;52.85;48.92;;;;;;;;;;9985692;29;20050;-71
2023/01/11 00:36:03;;;;;;;54.60;50.75;;;;;;;;;;9993723;29;20050;-72
2023/01/11 00:47:55;;;;;;;53.05;49.42;;;;;;;;;;9985624;29;20048;-72
2023/01/11 00:51:30;;;;;;;53.13;49.63;;;;;;;;;;9985150;29;20068;-71
2023/01/11 00:56:27;;;;;;;51.30;47.85;;;;;;;;;;9985746;29;20092;-70
2023/01/11 01:01:23;;;;;;;51.70;47.85;;;;;;;;;;9979678;29;20142;-70
2023/01/11 01:06:19;;;;;;;48.53;45.28;;;;;;;;;;9982873;29;20048;-69
2023/01/11 01:11:16;;;;;;;52.22;48.15;;;;;;;;;;9988331;29;20507;-69
2023/01/11 01:16:12;;;;;;;52.65;49.00;;;;;;;;;;9981253;29;20064;-69
2023/01/11 01:21:08;;;;;;;50.70;46.65;;;;;;;;;;9992657;29;20614;-69
2023/01/11 01:26:05;;;;;;;50.95;47.55;;;;;;;;;;9977425;29;20140;-69
2023/01/11 01:31:01;;;;;;;50.58;46.67;;;;;;;;;;9987662;29;20051;-69
2023/01/11 01:35:59;;;;;;;48.58;44.92;;;;;;;;;;9986994;29;20099;-72
2023/01/11 01:40:56;;;;;;;51.78;47.97;;;;;;;;;;9993148;29;20128;-70
2023/01/11 01:45:54;;;;;;;49.95;46.50;;;;;;;;;;9981930;29;20047;-70
2023/01/11 01:50:54;;;;;;;48.97;45.40;;;;;;;;;;9985246;29;20063;-70
2023/01/11 01:55:52;;;;;;;50.80;47.10;;;;;;;;;;9986677;29;20464;-70
2023/01/11 02:00:48;;;;;;;51.92;48.25;;;;;;;;;;9980655;29;20056;-70
2023/01/11 02:05:44;;;;;;;52.22;48.38;;;;;;;;;;9971889;29;20051;-70
2023/01/11 02:10:41;;;;;;;50.50;47.10;;;;;;;;;;9976282;29;20126;-69
2023/01/11 02:15:37;;;;;;;49.08;45.53;;;;;;;;;;9981848;29;20047;-69
2023/01/11 02:20:41;;;;;;;48.35;44.20;;;;;;;;;;9978182;29;20044;-69
2023/01/11 02:25:52;;;;;;;48.45;44.67;;;;;;;;;;9984892;29;20062;-70
2023/01/11 02:31:00;;;;;;;48.42;45.08;;;;;;;;;;9982665;29;20100;-69
2023/01/11 02:36:15;;;;;;;50.92;46.78;;;;;;;;;;9981626;29;20056;-69
2023/01/11 02:41:27;;;;;;;49.22;45.38;;;;;;;;;;9991730;29;20052;-69
2023/01/11 02:46:32;;;;;;;47.95;44.53;;;;;;;;;;9974920;29;20049;-69
2023/01/11 02:51:40;;;;;;;51.80;48.13;;;;;;;;;;9980855;29;20552;-69
2023/01/11 02:56:40;;;;;;;50.40;46.90;;;;;;;;;;9969696;29;20145;-69
2023/01/11 03:01:46;;;;;;;51.90;48.05;;;;;;;;;;9982234;29;20201;-69
2023/01/11 03:06:43;;;;;;;50.85;47.45;;;;;;;;;;9969382;29;20048;-69
2023/01/11 03:17:17;;;;;;;51.78;48.38;;;;;;;;;;9978049;29;20076;-69
2023/01/11 03:22:13;;;;;;;51.95;48.60;;;;;;;;;;9983176;29;20044;-69
2023/01/11 03:27:09;;;;;;;51.53;48.13;;;;;;;;;;9971184;29;20052;-69
2023/01/11 03:32:13;;;;;;;48.92;45.72;;;;;;;;;;9981689;29;20101;-70
2023/01/11 03:37:24;;;;;;;50.70;47.33;;;;;;;;;;9979112;29;20048;-69
2023/01/11 03:42:22;;;;;;;50.50;47.20;;;;;;;;;;9984257;29;20131;-69
2023/01/11 03:47:20;;;;;;;50.55;47.15;;;;;;;;;;9979515;29;20067;-69
2023/01/11 03:52:19;;;;;;;48.17;44.90;;;;;;;;;;9994051;29;20119;-70
2023/01/11 03:57:20;;;;;;;49.70;46.40;;;;;;;;;;9989203;29;20072;-70
2023/01/11 04:02:17;;;;;;;47.92;44.70;;;;;;;;;;9991822;29;20131;-70
2023/01/11 04:07:14;;;;;;;49.13;45.55;;;;;;;;;;9981306;29;20131;-69
2023/01/11 04:12:10;;;;;;;46.38;43.05;;;;;;;;;;9988229;29;20076;-69
2023/01/11 04:17:06;;;;;;;46.95;43.75;;;;;;;;;;9976616;29;20518;-70
2023/01/11 04:22:03;;;;;;;47.47;44.17;;;;;;;;;;9981416;29;20131;-69
2023/01/11 04:26:59;;;;;;;46.08;42.90;;;;;;;;;;9973754;29;20139;-70
2023/01/11 04:31:55;;;;;;;46.50;43.20;;;;;;;;;;9976134;29;20075;-70
2023/01/11 04:36:51;;;;;;;48.97;45.67;;;;;;;;;;9981405;29;20423;-70
2023/01/11 04:47:03;;;;;;;47.30;44.00;;;;;;;;;;9984275;29;20139;-70
2023/01/11 04:51:59;;;;;;;47.55;44.13;;;;;;;;;;9980179;29;20071;-70
2023/01/11 04:56:56;;;;;;;46.25;43.05;;;;;;;;;;9979014;29;20052;-70
2023/01/11 05:01:52;;;;;;;46.00;42.60;;;;;;;;;;9985510;29;20396;-70
2023/01/11 05:06:49;;;;;;;48.53;44.92;;;;;;;;;;9981226;29;20074;-70
2023/01/11 05:11:45;;;;;;;48.47;44.97;;;;;;;;;;9989033;29;20101;-71
2023/01/11 05:16:42;;;;;;;45.00;41.75;;;;;;;;;;9983111;29;20059;-71
2023/01/11 05:21:39;;;;;;;46.30;42.50;;;;;;;;;;9985104;29;20104;-71
2023/01/11 05:26:36;;;;;;;43.78;40.47;;;;;;;;;;9982450;29;20058;-71
2023/01/11 05:31:33;;;;;;;45.17;41.63;;;;;;;;;;9984443;29;20514;-69
2023/01/11 05:36:31;;;;;;;44.33;41.15;;;;;;;;;;9986270;29;20058;-70
2023/01/11 05:41:28;;;;;;;46.17;42.33;;;;;;;;;;9983104;29;20249;-70
2023/01/11 05:46:25;;;;;;;47.13;43.83;;;;;;;;;;9979717;29;20079;-70
2023/01/11 05:51:21;;;;;;;45.67;42.38;;;;;;;;;;9983503;29;20052;-69
2023/01/11 05:56:18;;;;;;;45.75;42.53;;;;;;;;;;9984566;29;20499;-68
2023/01/11 06:01:15;;;;;;;46.15;42.95;;;;;;;;;;9978236;29;20040;-68
2023/01/11 06:06:13;;;;;;;45.40;42.13;;;;;;;;;;9982676;29;20075;-69
2023/01/11 06:11:09;;;;;;;44.78;41.47;;;;;;;;;;9978730;29;20131;-69
2023/01/11 06:16:08;;;;;;;45.58;42.22;;;;;;;;;;9984138;29;20044;-69
2023/01/11 06:21:05;;;;;;;45.38;42.00;;;;;;;;;;9985802;29;20083;-69
2023/01/11 06:26:05;;;;;;;48.28;44.78;;;;;;;;;;9975773;29;20888;-70
2023/01/11 06:31:02;;;;;;;45.75;42.35;;;;;;;;;;9986715;29;20094;-70
2023/01/11 06:36:02;;;;;;;46.65;43.15;;;;;;;;;;9986979;29;20055;-70
2023/01/11 06:40:59;;;;;;;44.72;41.42;;;;;;;;;;9978256;29;20052;-70
2023/01/11 06:45:56;;;;;;;46.28;42.88;;;;;;;;;;9978767;29;20529;-69
2023/01/11 06:50:53;;;;;;;47.05;43.55;;;;;;;;;;9972991;29;20550;-70
2023/01/11 06:55:51;;;;;;;45.90;42.40;;;;;;;;;;9978458;29;20661;-69
2023/01/11 07:00:47;;;;;;;46.50;42.95;;;;;;;;;;9979212;29;21204;-69
2023/01/11 07:05:44;;;;;;;46.88;43.38;;;;;;;;;;9989846;29;20052;-69
2023/01/11 07:10:41;;;;;;;47.03;43.53;;;;;;;;;;9986072;29;20127;-68
2023/01/11 07:15:37;;;;;;;45.30;41.78;;;;;;;;;;9988943;29;20823;-68
2023/01/11 07:20:33;;;;;;;46.30;42.70;;;;;;;;;;9989481;29;20104;-68
2023/01/11 07:25:30;;;;;;;46.63;43.13;;;;;;;;;;9983093;29;20136;-69
2023/01/11 07:30:27;;;;;;;47.40;43.60;;;;;;;;;;9991518;29;20075;-68
2023/01/11 07:35:24;;;;;;;45.13;41.67;;;;;;;;;;9985036;29;20048;-69
2023/01/11 07:40:23;;;;;;;44.92;41.42;;;;;;;;;;9985326;29;20052;-68
2023/01/11 07:45:19;;;;;;;43.33;39.80;;;;;;;;;;9994390;29;20056;-68
2023/01/11 07:50:16;;;;;;;44.80;41.50;;;;;;;;;;9990384;29;20060;-68
2023/01/11 07:55:12;;;;;;;46.65;43.15;;;;;;;;;;9992168;29;20064;-69
2023/01/11 08:00:09;;;;;;;46.78;42.95;;;;;;;;;;9987186;29;20587;-69
2023/01/11 08:05:05;;;;;;;44.88;41.30;;;;;;;;;;9986607;29;20082;-68
2023/01/11 08:10:02;;;;;;;42.40;39.20;;;;;;;;;;9984403;29;20139;-68
2023/01/11 08:14:59;;;;;;;43.45;40.05;;;;;;;;;;9985639;29;20490;-69
2023/01/11 08:19:55;;;;;;;44.95;41.45;;;;;;;;;;9979576;29;20052;-69
2023/01/11 08:24:52;;;;;;;44.05;40.65;;;;;;;;;;9981560;29;20465;-69
2023/01/11 08:29:48;;;;;;;43.88;40.38;;;;;;;;;;9982847;29;20045;-69
2023/01/11 08:34:44;;;;;;;46.10;42.60;;;;;;;;;;9977607;29;20138;-69
2023/01/11 08:39:42;;;;;;;47.90;44.30;;;;;;;;;;9979619;29;20526;-70
2023/01/11 08:44:38;;;;;;;45.92;42.53;;;;;;;;;;9987181;29;20422;-67
2023/01/11 08:49:34;;;;;;;49.10;45.42;;;;;;;;;;9984224;29;20495;-67
2023/01/11 08:54:30;;;;;;;47.33;43.70;;;;;;;;;;9989646;29;20048;-67
2023/01/11 08:59:27;;;;;;;48.92;44.92;;;;;;;;;;9981076;29;20058;-67
2023/01/11 09:04:24;;;;;;;49.45;45.83;;;;;;;;;;9991560;29;20135;-67
2023/01/11 09:09:21;;;;;;;51.08;47.28;;;;;;;;;;9983337;29;20502;-68
2023/01/11 09:14:17;;;;;;;51.38;47.58;;;;;;;;;;9987772;29;20564;-68
2023/01/11 09:19:14;;;;;;;53.63;49.70;;;;;;;;;;9975620;29;20147;-68
2023/01/11 09:24:10;;;;;;;54.50;50.58;;;;;;;;;;9980751;29;20073;-68
2023/01/11 09:29:07;;;;;;;57.00;52.92;;;;;;;;;;9990205;29;20068;-67
2023/01/11 09:34:05;;;;;;;54.42;50.22;;;;;;;;;;9986973;29;20047;-66
2023/01/11 09:39:06;;;;;;;55.20;51.00;;;;;;;;;;9981994;29;20053;-67
2023/01/11 09:44:15;;;;;;;59.50;54.85;;;;;;;;;;9983853;29;20055;-67
2023/01/11 09:49:18;;;;;;;58.33;54.15;;;;;;;;;;9979092;29;20049;-66
2023/01/11 09:54:18;;;;;;;60.92;56.42;;;;;;;;;;9979351;29;20143;-67
2023/01/11 09:59:21;;;;;;;58.80;54.08;;;;;;;;;;9972440;29;20103;-68
2023/01/11 10:04:36;;;;;;;58.22;53.70;;;;;;;;;;9988099;29;20044;-67
2023/01/11 10:09:38;;;;;;;64.05;59.25;;;;;;;;;;9991835;29;20076;-67
2023/01/11 10:15:03;;;;;;;59.53;55.13;;;;;;;;;;9969024;29;20040;-68
2023/01/11 10:20:26;;;;;;;62.20;57.60;;;;;;;;;;9977541;29;20075;-69
2023/01/11 10:25:29;;;;;;;;;;;;;;;;;;9983892;29;20131;-67
2023/01/11 10:41:02;;;;;;;67.03;62.38;;;;;;;;;;9981163;29;20083;-66
2023/01/11 10:46:00;;;;;;;66.18;61.47;;;;;;;;;;9979980;29;20051;-66
2023/01/11 10:51:04;;;;;;;65.65;61.28;;;;;;;;;;9973026;29;20064;-67
2023/01/11 10:56:04;;;;;;;66.78;62.22;;;;;;;;;;9983411;29;20075;-67
2023/01/11 11:01:11;;;;;;;70.35;65.47;;;;;;;;;;9981507;29;20076;-67
2023/01/11 11:06:14;;;;;;;66.90;62.35;;;;;;;;;;9981160;29;20519;-66
2023/01/11 11:11:25;;;;;;;68.68;64.32;;;;;;;;;;9978976;29;20049;-66
2023/01/11 11:16:22;;;;;;;68.10;63.20;;;;;;;;;;9971870;29;20051;-66
2023/01/11 11:21:27;;;;;;;68.05;63.58;;;;;;;;;;9965799;29;20054;-67
2023/01/11 11:26:26;;;;;;;60.67;56.10;;;;;;;;;;9969532;29;20061;-67
2023/01/11 11:31:22;;;;;;;61.17;57.05;;;;;;;;;;9975293;29;20265;-67
2023/01/11 11:36:19;;;;;;;55.90;51.45;;;;;;;;;;9981082;29;20075;-67
2023/01/11 11:41:16;;;;;;;54.67;51.03;;;;;;;;;;9982525;29;20119;-67
2023/01/11 11:46:12;;;;;;;55.65;51.83;;;;;;;;;;9978832;29;20040;-68
2023/01/11 11:51:18;;;;;;;49.67;46.33;;;;;;;;;;9979623;29;20056;-68
2023/01/11 11:56:16;;;;;;;46.30;42.78;;;;;;;;;;9978935;29;20049;-67
2023/01/11 12:01:30;;;;;;;47.28;43.83;;;;;;;;;;9993054;29;20395;-67
2023/01/11 12:06:27;;;;;;;46.28;43.15;;;;;;;;;;9983674;29;20060;-67
2023/01/11 12:11:33;;;;;;;45.28;42.17;;;;;;;;;;9980884;29;20533;-67
2023/01/11 12:16:32;;;;;;;43.80;40.92;;;;;;;;;;9979005;29;20087;-68
2023/01/11 12:21:29;;;;;;;41.30;38.25;;;;;;;;;;9991081;29;20067;-68
2023/01/11 12:26:33;;;;;;;46.65;42.72;;;;;;;;;;9980547;29;20081;-67
2023/01/11 12:31:38;;;;;;;43.08;40.30;;;;;;;;;;9988742;29;20055;-67
2023/01/11 12:36:53;;;;;;;42.42;39.40;;;;;;;;;;9987889;29;20044;-66
2023/01/11 12:41:59;;;;;;;44.42;41.53;;;;;;;;;;9982084;29;20075;-66
2023/01/11 12:46:58;;;;;;;43.90;40.53;;;;;;;;;;9980718;29;20072;-68
2023/01/11 12:52:01;;;;;;;46.25;42.88;;;;;;;;;;9983296;29;20056;-68
2023/01/11 12:56:57;;;;;;;;;;;;;;;;;;9985779;29;20040;-67
2023/01/11 13:02:06;;;;;;;46.30;42.90;;;;;;;;;;9979598;29;19979;-68
2023/01/11 13:07:05;;;;;;;45.45;42.53;;;;;;;;;;9983250;29;20051;-68
2023/01/11 13:12:20;;;;;;;49.10;45.45;;;;;;;;;;9983992;29;20058;-68
2023/01/11 13:17:17;;;;;;;48.70;45.55;;;;;;;;;;9982422;29;20054;-66
2023/01/11 13:22:16;;;;;;;46.75;43.28;;;;;;;;;;9985887;29;20048;-67
2023/01/11 13:27:23;;;;;;;45.20;41.42;;;;;;;;;;9985352;29;20589;-67
2023/01/11 13:32:25;;;;;;;43.15;40.13;;;;;;;;;;9984489;29;20426;-67
2023/01/11 13:37:40;;;;;;;40.90;37.42;;;;;;;;;;9983739;29;20499;-67
2023/01/11 13:42:39;;;;;;;37.75;34.70;;;;;;;;;;9982546;29;20059;-68
2023/01/11 13:47:38;;;;;;;32.75;30.20;;;;;;;;;;9978142;29;20119;-67
2023/01/11 13:52:37;;;;;;;27.30;24.58;;;;;;;;;;9981848;29;20086;-67
2023/01/11 13:57:48;;;;;;;22.38;20.50;;;;;;;;;;9982073;29;20160;-68
2023/01/11 14:03:05;;;;;;;25.80;23.05;;;;;;;;;;9988235;29;20049;-67
2023/01/11 14:08:21;;;;;;;27.38;24.70;;;;;;;;;;9972602;29;20648;-66
2023/01/11 14:14:12;;;;;;;28.75;25.83;;;;;;;;;;9981596;29;20052;-65
2023/01/11 14:18:48;;;;;;;25.83;23.55;;;;;;;;;;9978926;29;20056;-67
2023/01/11 14:23:51;;;;;;;28.63;24.67;;;;;;;;;;9978486;29;20056;-67
2023/01/11 14:29:03;;;;;;;25.60;23.38;;;;;;;;;;9980859;29;20075;-67
2023/01/11 14:34:21;;;;;;;24.42;22.15;;;;;;;;;;9982376;29;20044;-67
2023/01/11 14:39:37;;;;;;;12.25;5.22;;;;;;;;;;9949572;29;20049;-69
2023/01/11 14:45:53;;;;;;;10.57;6.13;;;;;;;;;;10260843;27;20610;-69
2023/01/11 14:50:55;;;;;;;11.07;5.95;;;;;;;;;;10214211;28;20050;-70
2023/01/11 14:55:52;;;;;;;;;;;;;;;;;;10227156;28;20492;-69
2023/01/11 15:00:48;;;;;;;12.35;7.45;;;;;;;;;;10192099;28;64560;-70
2023/01/11 15:07:35;;;;;;;20.27;6.72;;;;;;;7.57;100.00;100807.19;10386567;27;20155;-70
2023/01/11 15:12:34;;;;;;;12.98;7.75;;;;;;;7.56;100.00;100802.84;10380946;27;75019;-70
2023/01/11 15:23:02;;;;;;;9.30;8.38;;;;;;;7.40;100.00;100793.28;10332990;28;20041;-68
2023/01/11 15:28:03;;;;;;;16.40;8.93;;;;;;;7.29;100.00;100796.19;10335195;28;20044;-69
2023/01/11 15:33:18;;;;;;;15.93;8.98;;;;;;;7.27;100.00;100801.09;10336156;28;20566;-69
2023/01/11 15:38:20;;;;;;;18.88;9.13;;;;;;;7.22;100.00;100805.78;10342830;28;20040;-69
2023/01/11 15:43:43;;;;;;;16.83;8.33;;;;;;;7.20;100.00;100800.66;10344288;28;20127;-69
2023/01/11 15:48:50;;;;;;;19.70;9.40;;;;;;;7.14;100.00;100793.66;10330014;28;20561;-69
2023/01/11 15:54:04;;;;;;;13.82;8.38;;;;;;;7.07;100.00;100790.50;10341847;28;20040;-69
2023/01/11 15:59:34;;;;;;;19.15;8.85;;;;;;;7.05;100.00;100795.41;10342284;28;20549;-68
2023/01/11 16:04:45;;;;;;;15.00;8.43;;;;;;;7.07;100.00;100788.56;10352056;28;20040;-69
2023/01/11 16:10:13;;;;;;;15.65;8.80;;;;;;;7.03;100.00;100797.59;10335207;28;20083;-69
2023/01/11 16:15:30;;;;;;;11.48;9.32;;;;;;;6.90;100.00;100799.94;10322457;28;20517;-70
2023/01/11 16:20:27;;;;;;;19.52;8.73;;;;;;;7.03;100.00;100811.19;10304363;28;20051;-69
2023/01/11 16:25:28;;;;;;;16.13;7.95;;;;;;;6.95;100.00;100813.47;10308127;28;20050;-70
2023/01/11 16:30:26;;;;;;;14.45;8.07;;;;;;;6.91;100.00;100815.13;10308008;28;20056;-70
2023/01/11 16:35:24;;;;;;;16.65;8.18;;;;;;;6.96;100.00;100825.16;10306856;28;20052;-70
2023/01/11 16:40:35;;;;;;;20.25;7.63;;;;;;;7.00;100.00;100819.94;10301724;28;20044;-70
2023/01/11 16:45:41;;;;;;;18.15;8.27;;;;;;;6.91;100.00;100807.00;10303003;28;20044;-69
2023/01/11 16:50:42;;;;;;;17.20;8.07;;;;;;;6.90;100.00;100826.31;10304736;28;20052;-69
2023/01/11 16:55:43;;;;;;;18.17;7.10;;;;;;;6.77;100.00;100827.81;10304796;28;20051;-70
2023/01/11 17:00:39;;;;;;;18.73;8.25;;;;;;;6.71;100.00;100827.09;10306406;28;20446;-70
2023/01/11 17:05:36;;;;;;;16.55;7.38;;;;;;;6.78;100.00;100828.63;10309917;28;20052;-70
2023/01/11 17:10:32;;;;;;;16.65;7.35;;;;;;;6.79;100.00;100836.50;10300512;28;20361;-69
2023/01/11 17:15:41;;;;;;;9.95;7.00;;;;;;;6.82;100.00;100832.38;10291539;28;20115;-70
2023/01/11 17:20:39;;;;;;;14.93;6.53;;;;;;;6.93;100.00;100828.44;10303945;28;20040;-71
2023/01/11 17:25:36;;;;;;;17.73;7.65;;;;;;;6.90;100.00;100832.56;10303602;28;20049;-69
2023/01/11 17:30:44;;;;;;;16.23;7.95;;;;;;;6.85;100.00;100835.34;10308779;28;20040;-69
2023/01/11 17:35:41;;;;;;;14.52;7.35;;;;;;;6.80;100.00;100838.13;10308118;28;20098;-69
2023/01/11 17:40:39;;;;;;;19.95;8.30;;;;;;;6.85;100.00;100840.78;10184329;23;20876;-70
2023/01/11 17:45:37;;;;;;;17.30;7.50;;;;;;;6.85;100.00;100839.97;10145355;28;20507;-71
2023/01/11 17:50:45;;;;;;;20.27;7.70;;;;;;;6.74;100.00;100833.84;10161935;28;20046;-70
2023/01/11 17:55:51;;;;;;;14.45;7.05;;;;;;;6.79;100.00;100841.13;10127268;28;20174;-70
2023/01/11 18:01:19;;;;;;;12.07;7.10;;;;;;;6.78;100.00;100829.47;10161284;28;20142;-69
2023/01/11 18:06:21;;;;;;;20.13;8.15;;;;;;;6.67;100.00;100849.69;10161745;28;20038;-70
2023/01/11 18:11:30;;;;;;;17.73;7.28;;;;;;;6.61;100.00;100856.25;10152810;28;20121;-69
2023/01/11 18:16:27;;;;;;;15.55;8.02;;;;;;;6.53;100.00;100852.28;10160645;28;20057;-69
2023/01/11 18:21:24;;;;;;;19.48;8.43;;;;;;;6.56;100.00;100842.72;10161752;28;20412;-69
2023/01/11 18:26:25;;;;;;;14.35;7.70;;;;;;;6.59;100.00;100847.59;10157915;28;20049;-69
2023/01/11 18:31:22;;;;;;;21.70;8.60;;;;;;;6.64;100.00;100859.22;10158653;28;20096;-69
2023/01/11 18:36:21;;;;;;;14.65;7.43;;;;;;;6.69;100.00;100859.16;10168868;28;20052;-68
2023/01/11 18:46:33;;;;;;;13.80;7.82;;;;;;;6.74;100.00;100855.59;10169206;28;20053;-69
2023/01/11 18:51:33;;;;;;;18.52;8.10;;;;;;;6.69;100.00;100852.94;10154842;28;20051;-69
2023/01/11 18:56:29;;;;;;;18.77;7.57;;;;;;;6.61;100.00;100845.38;10152862;28;20088;-69
2023/01/11 19:01:26;;;;;;;16.90;8.00;;;;;;;6.46;100.00;100852.59;10178220;28;20073;-69
2023/01/11 19:06:23;;;;;;;23.73;9.23;;;;;;;6.44;100.00;100852.06;10185604;28;20057;-69
2023/01/11 19:11:22;;;;;;;22.05;8.07;;;;;;;6.43;100.00;100860.50;10183888;28;20072;-69
2023/01/11 19:16:19;;;;;;;15.20;7.22;;;;;;;6.46;100.00;100844.47;10183299;28;20563;-69
2023/01/11 19:21:15;;;;;;;17.63;7.88;;;;;;;6.48;100.00;100847.69;10197066;28;20088;-69
2023/01/11 19:26:13;;;;;;;19.33;7.95;;;;;;;6.46;100.00;100844.47;10174623;28;20129;-70
2023/01/11 19:31:12;;;;;;;17.58;7.32;;;;;;;6.55;100.00;100841.13;10189891;28;20090;-69
2023/01/11 19:36:09;;;;;;;16.40;7.10;;;;;;;6.44;100.00;100833.06;10172595;28;20046;-69
2023/01/11 19:41:07;;;;;;;16.77;6.63;;;;;;;6.39;100.00;100811.41;10183188;28;20073;-69
2023/01/11 19:46:04;;;;;;;15.88;7.88;;;;;;;6.37;100.00;100823.66;10180381;28;20058;-69
2023/01/11 19:51:09;;;;;;;18.10;7.68;;;;;;;6.27;100.00;100808.25;10182407;28;20105;-69
2023/01/11 19:56:07;;;;;;;21.02;7.32;;;;;;;6.25;100.00;100815.88;10191128;28;20137;-69
2023/01/11 20:01:09;;;;;;;16.38;7.80;;;;;;;6.29;100.00;100811.50;10186923;28;20054;-69
2023/01/11 20:06:07;;;;;;;21.55;6.97;;;;;;;6.22;100.00;100805.56;10139234;28;20136;-69
2023/01/11 20:11:08;;;;;;;12.60;6.43;;;;;;;6.19;100.00;100800.72;10162818;28;20692;-69
2023/01/11 20:16:06;;;;;;;17.92;7.07;;;;;;;6.16;100.00;100801.31;10147375;28;20104;-69
2023/01/11 20:21:03;;;;;;;29.38;8.18;;;;;;;6.23;100.00;100807.22;10159251;28;20116;-68
2023/01/11 20:26:06;;;;;;;23.92;7.00;;;;;;;6.22;100.00;100808.28;10171014;28;20078;-69
2023/01/11 20:31:04;;;;;;;;;;;;;;;6.28;100.00;100805.25;10159619;28;20065;-68
2023/01/11 20:36:09;;;;;;;17.38;6.65;;;;;;;6.29;100.00;100784.34;10167554;28;20578;-68
2023/01/11 20:46:29;;;;;;;;;;;;;;;6.25;100.00;100767.00;10167157;28;20046;-68
2023/01/11 20:51:25;;;;;;;19.50;7.68;;;;;;;6.15;100.00;100756.22;10174194;28;19929;-68
2023/01/11 20:56:22;;;;;;;14.20;7.32;;;;;;;6.08;100.00;100741.13;10174966;28;20496;-68
2023/01/11 21:01:25;;;;;;;18.25;8.23;;;;;;;6.11;100.00;100747.88;10181884;28;20042;-68
2023/01/11 21:06:22;;;;;;;17.98;7.38;;;;;;;6.00;100.00;100728.16;10169166;28;20797;-68
2023/01/11 21:11:18;;;;;;;17.23;8.10;;;;;;;5.97;100.00;100734.16;10170157;28;20054;-67
2023/01/11 21:16:15;;;;;;;21.42;8.82;;;;;;;5.95;100.00;100720.06;10168430;28;20512;-67
2023/01/11 21:21:14;;;;;;;20.75;9.57;;;;;;;5.99;100.00;100720.31;10169891;28;20041;-67
2023/01/11 21:26:15;;;;;;;23.17;8.88;;;;;;;5.94;100.00;100713.03;10188331;28;20073;-68
2023/01/11 21:31:12;;;;;;;13.70;7.60;;;;;;;5.94;100.00;100714.88;10187288;28;20049;-67
2023/01/11 21:36:13;;;;;;;17.40;7.07;;;;;;;6.05;100.00;100702.88;10179904;28;20046;-67
2023/01/11 21:41:15;;;;;;;19.35;7.05;;;;;;;6.16;100.00;100703.56;10148160;28;20046;-67
2023/01/11 21:46:12;;;;;;;17.13;7.63;;;;;;;6.23;100.00;100676.88;10184425;28;20125;-67
2023/01/11 21:51:09;;;;;;;16.13;6.90;;;;;;;6.26;100.00;100679.00;10170780;28;20055;-67
2023/01/11 21:56:06;;;;;;;15.23;7.25;;;;;;;6.24;100.00;100673.88;10148806;28;20134;-68
2023/01/11 22:01:10;;;;;;;19.23;7.88;;;;;;;6.35;100.00;100680.00;10183396;28;20046;-68
2023/01/11 22:06:07;;;;;;;15.10;6.70;;;;;;;6.36;100.00;100659.91;10185758;28;20050;-68
2023/01/11 22:11:05;;;;;;;19.85;7.57;;;;;;;6.35;100.00;100641.97;10184919;28;20046;-69
2023/01/11 22:16:05;;;;;;;17.27;5.78;;;;;;;6.48;100.00;100641.25;10169026;28;20623;-70
2023/01/11 22:21:05;;;;;;;18.77;6.75;;;;;;;6.48;100.00;100630.41;10178567;28;20559;-68
2023/01/11 22:26:07;;;;;;;22.15;7.40;;;;;;;6.55;100.00;100623.81;10182793;28;20049;-66
2023/01/11 22:31:04;;;;;;;20.60;7.15;;;;;;;6.57;100.00;100618.88;10182129;28;20041;-66
2023/01/11 22:36:03;;;;;;;16.23;6.25;;;;;;;6.62;100.00;100624.25;10173547;28;20561;-69
2023/01/11 22:40:59;;;;;;;16.63;7.50;;;;;;;6.69;100.00;100630.13;10170759;28;20041;-69
2023/01/11 22:45:57;;;;;;;18.10;7.35;;;;;;;6.50;100.00;100622.78;10179057;28;20060;-69
2023/01/11 22:50:54;;;;;;;13.88;6.40;;;;;;;6.43;100.00;100606.03;10175221;28;20046;-68
2023/01/11 22:55:50;;;;;;;17.10;6.70;;;;;;;6.39;100.00;100605.00;10148175;28;20529;-69
2023/01/11 23:00:46;;;;;;;31.05;8.35;;;;;;;6.42;100.00;100592.72;10174411;28;20050;-69
2023/01/11 23:05:47;;;;;;;19.00;6.55;;;;;;;6.50;100.00;100590.16;10180348;28;20499;-67
2023/01/11 23:10:44;;;;;;;23.42;7.78;;;;;;;6.54;100.00;100584.94;10170956;28;20628;-67
2023/01/11 23:15:40;;;;;;;15.27;7.18;;;;;;;6.55;100.00;100591.22;10184532;28;20515;-67
2023/01/11 23:20:36;;;;;;;16.27;7.60;;;;;;;6.51;100.00;100597.22;10182682;28;20052;-68
2023/01/11 23:25:33;;;;;;;14.50;7.38;;;;;;;6.46;100.00;100599.19;10177071;28;20129;-68
2023/01/11 23:30:29;;;;;;;19.25;6.32;;;;;;;6.40;100.00;100578.63;10196341;28;20046;-68
2023/01/11 23:35:26;;;;;;;9.55;7.05;;;;;;;6.41;100.00;100578.34;10180230;28;20070;-68
2023/01/11 23:40:22;;;;;;;15.13;7.00;;;;;;;6.41;100.00;100583.78;10192733;28;20056;-68
2023/01/11 23:45:18;;;;;;;14.15;6.60;;;;;;;6.44;100.00;100590.53;10192704;28;20046;-68
2023/01/11 23:50:15;;;;;;;14.70;8.27;;;;;;;6.42;100.00;100577.25;10193649;28;20075;-68
2023/01/11 23:55:12;;;;;;;10.20;7.30;;;;;;;6.38;100.00;100570.78;10190005;28;20128;-67
